Time;durP1;ratioP1;P1;durP2;ratioP2;P2;SDS_P1;SDS_P2;PMS_P1;PMS_P2;Temp;Humidity;BMP_temperature;BMP_pressure;BME280_temperature;BME280_humidity;BME280_pressure;Samples;Min_cycle;Max_cycle;Signal;HPM_P1;HPM_P2
2022/12/08 00:01:33;;;;;;;0.90;0.00;;;;;;;-0.56;58.97;100629.34;5024455;28;20021;-66
2022/12/08 00:04:00;;;;;;;0.40;0.10;;;;;;;-0.59;58.93;100631.94;5022128;28;20036;-67
2022/12/08 00:09:32;;;;;;;1.65;0.20;;;;;;;-0.81;59.90;100637.84;5025157;28;20041;-67
2022/12/08 00:12:01;;;;;;;0.77;0.10;;;;;;;-0.90;60.11;100637.81;5023757;28;20049;-66
2022/12/08 00:14:32;;;;;;;1.23;0.40;;;;;;;-0.84;59.92;100648.97;5024894;28;20791;-66
2022/12/08 00:16:58;;;;;;;2.00;0.20;;;;;;;-0.45;59.01;100646.50;5022755;28;20053;-67
2022/12/08 00:19:27;;;;;;;1.40;0.60;;;;;;;-0.86;60.40;100644.66;5027161;28;20029;-69
2022/12/08 00:21:53;;;;;;;1.48;0.45;;;;;;;-0.30;58.78;100641.41;5036591;28;22058;-69
2022/12/08 00:24:20;;;;;;;0.80;0.25;;;;;;;-0.36;58.92;100647.38;5040087;28;20485;-66
2022/12/08 00:26:46;;;;;;;2.45;0.57;;;;;;;-0.04;58.11;100635.41;5022484;28;20390;-65
2022/12/08 00:29:12;;;;;;;2.78;0.82;;;;;;;-0.28;58.85;100634.56;5024280;28;20071;-65
2022/12/08 00:31:37;;;;;;;9.68;0.40;;;;;;;-0.51;59.60;100634.50;5039298;28;20044;-67
2022/12/08 00:34:03;;;;;;;0.90;0.43;;;;;;;-0.14;58.14;100630.28;5031219;28;20037;-66
2022/12/08 00:36:29;;;;;;;1.88;0.55;;;;;;;-0.13;57.97;100624.25;5024352;28;20025;-67
2022/12/08 00:38:55;;;;;;;1.55;0.50;;;;;;;-0.27;58.91;100625.97;5030338;28;20049;-67
2022/12/08 00:42:10;;;;;;;1.65;0.25;;;;;;;-0.18;58.18;100630.28;5024777;28;20037;-68
2022/12/08 00:44:11;;;;;;;2.50;0.28;;;;;;;0.03;58.25;100624.25;5027531;28;20057;-68
2022/12/08 00:46:37;;;;;;;2.30;0.20;;;;;;;-0.04;58.40;100620.00;5025664;28;20539;-66
2022/12/08 00:49:04;;;;;;;4.53;0.73;;;;;;;-0.43;59.23;100626.81;5039830;28;20088;-67
2022/12/08 00:51:29;;;;;;;4.15;0.20;;;;;;;-0.68;59.83;100625.91;5028783;28;20044;-68
2022/12/08 00:53:55;;;;;;;1.02;0.30;;;;;;;-0.24;59.31;100627.69;5026776;28;20056;-68
2022/12/08 00:56:20;;;;;;;1.42;0.38;;;;;;;0.07;58.69;100631.13;5032213;28;20240;-67
2022/12/08 00:58:46;;;;;;;3.35;1.33;;;;;;;0.26;57.91;100624.28;5029186;28;20041;-67
2022/12/08 01:01:13;;;;;;;3.10;0.32;;;;;;;0.26;57.88;100616.56;5033062;28;20409;-67
2022/12/08 01:03:38;;;;;;;6.35;0.65;;;;;;;-0.52;60.35;100612.25;5028202;28;20135;-67
2022/12/08 01:06:05;;;;;;;2.97;0.30;;;;;;;-0.24;59.43;100605.41;5030154;28;20463;-67
2022/12/08 01:08:31;;;;;;;1.10;0.22;;;;;;;-0.28;59.63;100603.72;5037306;28;20780;-68
2022/12/08 01:11:12;;;;;;;0.70;0.10;;;;;;;-0.21;59.26;100594.31;5044768;28;20033;-66
2022/12/08 01:13:37;;;;;;;1.45;0.22;;;;;;;0.27;57.75;100590.81;5028905;28;20056;-67
2022/12/08 01:16:03;;;;;;;3.83;0.20;;;;;;;-0.18;59.11;100587.44;5029164;28;20103;-68
2022/12/08 01:18:29;;;;;;;1.00;0.10;;;;;;;0.04;58.53;100597.72;5029796;28;20053;-68
2022/12/08 01:21:01;;;;;;;1.10;0.10;;;;;;;-0.16;58.59;100583.16;5030329;28;20033;-68
2022/12/08 01:23:27;;;;;;;9.73;1.67;;;;;;;-0.18;58.67;100596.88;5027532;28;20076;-67
2022/12/08 01:25:52;;;;;;;0.25;0.00;;;;;;;0.24;57.51;100595.97;5034819;28;21507;-67
2022/12/08 01:28:18;;;;;;;0.22;0.00;;;;;;;0.34;56.95;100624.25;5028252;28;20083;-67
2022/12/08 01:30:43;;;;;;;6.28;0.20;;;;;;;0.17;57.74;100632.00;5025321;28;20035;-67
2022/12/08 01:33:09;;;;;;;0.05;0.00;;;;;;;0.32;56.37;100625.97;5031468;28;20072;-67
2022/12/08 01:35:34;;;;;;;0.47;0.10;;;;;;;0.49;55.64;100639.66;5027980;28;20286;-66
2022/12/08 01:38:00;;;;;;;0.80;0.03;;;;;;;0.42;55.93;100631.09;5028579;28;20166;-67
2022/12/08 01:40:25;;;;;;;4.68;0.20;;;;;;;0.18;57.14;100626.81;5029272;28;20060;-68
2022/12/08 01:42:51;;;;;;;2.80;0.10;;;;;;;0.02;56.96;100614.84;5027032;28;20558;-68
2022/12/08 01:45:28;;;;;;;0.30;0.00;;;;;;;0.60;55.62;100614.75;5029731;28;20045;-67
2022/12/08 01:47:59;;;;;;;0.95;0.00;;;;;;;0.46;55.46;100619.94;5024543;28;20498;-67
2022/12/08 01:50:26;;;;;;;0.20;0.00;;;;;;;0.52;55.44;100619.06;5027116;28;20044;-68
2022/12/08 01:52:56;;;;;;;0.55;0.00;;;;;;;0.60;55.39;100611.34;5027878;28;20496;-68
2022/12/08 01:55:30;;;;;;;1.08;0.00;;;;;;;0.44;55.83;100610.53;5031145;28;20466;-68
2022/12/08 01:58:01;;;;;;;0.00;0.00;;;;;;;0.14;56.51;100612.25;5027086;28;22386;-68
2022/12/08 02:00:27;;;;;;;1.65;0.00;;;;;;;-0.27;57.23;100610.56;5029064;28;20033;-67
2022/12/08 02:02:55;;;;;;;0.45;0.45;;;;;;;-0.05;56.16;100614.00;5025201;28;20422;-68
2022/12/08 02:05:25;;;;;;;0.08;0.00;;;;;;;-0.30;56.14;100613.16;5027451;28;20033;-68
2022/12/08 02:07:51;;;;;;;2.60;0.00;;;;;;;-0.57;57.06;100617.38;5027398;28;20047;-68
2022/12/08 02:10:19;;;;;;;0.95;0.00;;;;;;;-0.68;56.96;100613.06;5029878;28;20033;-68
2022/12/08 02:12:46;;;;;;;0.17;0.00;;;;;;;-0.71;56.73;100611.34;5027103;28;20635;-67
2022/12/08 02:15:13;;;;;;;0.20;0.00;;;;;;;-1.08;57.81;100613.78;5031043;28;20276;-68
2022/12/08 02:18:12;;;;;;;0.60;0.00;;;;;;;-0.80;57.34;100606.19;5026116;28;20076;-68
2022/12/08 02:21:07;;;;;;;0.00;0.00;;;;;;;-0.83;57.09;100604.47;5029453;28;20148;-68
2022/12/08 02:24:14;;;;;;;0.00;0.00;;;;;;;-0.68;56.80;100597.66;5006953;28;20444;-67
2022/12/08 02:27:01;;;;;;;0.00;0.00;;;;;;;-0.63;56.93;100607.09;5013667;28;20265;-67
2022/12/08 02:30:05;;;;;;;0.00;0.00;;;;;;;-0.84;57.62;100607.03;5008085;28;20107;-68
2022/12/08 02:32:49;;;;;;;0.00;0.00;;;;;;;-0.94;58.15;100613.00;5011850;28;20045;-68
2022/12/08 02:35:33;;;;;;;0.05;0.00;;;;;;;-0.76;57.63;100602.78;5026548;28;20018;-67
2022/12/08 02:38:07;;;;;;;0.00;0.00;;;;;;;-0.72;57.55;100606.22;5027761;28;20102;-67
2022/12/08 02:40:40;;;;;;;0.28;0.00;;;;;;;-0.72;57.43;100601.94;5043907;28;20040;-67
2022/12/08 02:43:13;;;;;;;0.22;0.00;;;;;;;-0.58;57.34;100607.97;5025444;28;20076;-67
2022/12/08 02:46:10;;;;;;;0.00;0.00;;;;;;;-0.66;57.10;100604.53;5028257;28;20502;-67
2022/12/08 02:48:36;;;;;;;0.00;0.00;;;;;;;-0.87;57.60;100596.78;5022044;28;20512;-67
2022/12/08 02:51:01;;;;;;;0.10;0.00;;;;;;;-1.24;58.87;100587.22;5043431;28;20037;-67
2022/12/08 02:53:31;;;;;;;0.08;0.00;;;;;;;-0.87;57.53;100582.22;5025945;28;20225;-68
2022/12/08 02:56:18;;;;;;;0.17;0.10;;;;;;;-0.91;57.93;100569.38;5035612;28;20033;-68
2022/12/08 02:59:13;;;;;;;2.05;0.10;;;;;;;-0.86;57.91;100572.81;5024742;28;20055;-67
2022/12/08 03:01:39;;;;;;;0.88;0.10;;;;;;;-0.82;57.08;100569.41;5018359;28;20060;-68
2022/12/08 03:04:22;;;;;;;2.47;0.00;;;;;;;-0.64;57.03;100573.72;5026620;28;20045;-68
2022/12/08 03:06:57;;;;;;;1.27;0.00;;;;;;;-0.99;57.76;100562.53;5025173;28;20553;-67
2022/12/08 03:09:34;;;;;;;0.50;0.00;;;;;;;-1.02;57.93;100565.09;5025731;28;20107;-68
2022/12/08 03:12:17;;;;;;;0.30;0.00;;;;;;;-0.83;57.62;100548.03;5024507;28;20487;-68
2022/12/08 03:14:49;;;;;;;0.35;0.00;;;;;;;-0.98;58.39;100543.72;5025789;28;20032;-68
2022/12/08 03:17:18;;;;;;;0.10;0.00;;;;;;;-1.44;59.24;100523.03;5025432;28;20068;-67
2022/12/08 03:19:45;;;;;;;0.13;0.13;;;;;;;-1.02;58.25;100503.53;5023022;28;20486;-67
2022/12/08 03:22:14;;;;;;;0.25;0.00;;;;;;;-0.83;57.61;100516.38;5028045;28;20052;-67
2022/12/08 03:24:43;;;;;;;0.10;0.00;;;;;;;-1.34;58.99;100517.94;5024439;28;20041;-67
2022/12/08 03:27:13;;;;;;;0.47;0.10;;;;;;;-1.33;58.58;100517.94;5041959;28;20045;-67
2022/12/08 03:29:39;;;;;;;0.85;0.00;;;;;;;-1.47;58.81;100512.75;5039926;28;20041;-67
2022/12/08 03:32:21;;;;;;;0.00;0.00;;;;;;;-1.06;57.73;100514.63;5026456;28;20490;-67
2022/12/08 03:34:48;;;;;;;0.22;0.00;;;;;;;-0.95;57.45;100511.22;5033283;28;20040;-68
2022/12/08 03:37:14;;;;;;;2.10;0.10;;;;;;;-1.58;58.80;100504.16;5027868;28;20546;-68
2022/12/08 03:39:39;;;;;;;0.10;0.00;;;;;;;-1.51;59.43;100505.91;5025125;28;20555;-67
2022/12/08 03:42:05;;;;;;;0.10;0.00;;;;;;;-1.56;59.22;100496.50;5010437;28;20060;-67
2022/12/08 03:44:30;;;;;;;0.30;0.00;;;;;;;-1.29;58.29;100490.59;5029076;28;20069;-68
2022/12/08 03:46:56;;;;;;;0.00;0.00;;;;;;;-1.41;59.04;100491.41;5024643;28;20052;-68
2022/12/08 03:49:21;;;;;;;0.00;0.00;;;;;;;-1.21;58.24;100494.03;5026358;28;20044;-67
2022/12/08 03:51:46;;;;;;;0.70;0.08;;;;;;;-1.68;59.25;100476.78;5027109;28;20056;-68
2022/12/08 03:54:12;;;;;;;0.05;0.00;;;;;;;-1.59;59.53;100481.97;5026619;28;20025;-68
2022/12/08 03:56:38;;;;;;;0.08;0.00;;;;;;;-1.33;58.71;100488.88;5025367;28;20086;-68
2022/12/08 03:59:05;;;;;;;0.10;0.00;;;;;;;-1.53;59.23;100492.25;5030400;28;20553;-68
2022/12/08 04:01:30;;;;;;;0.35;0.00;;;;;;;-1.61;59.18;100484.50;5026321;28;20040;-66
2022/12/08 04:03:56;;;;;;;0.43;0.10;;;;;;;-1.49;59.35;100485.41;5006634;28;20050;-68
2022/12/08 04:06:22;;;;;;;0.57;0.20;;;;;;;-1.66;59.81;100491.31;5033046;28;20297;-68
2022/12/08 04:08:49;;;;;;;0.00;0.00;;;;;;;-2.18;60.77;100495.31;5025642;28;20526;-68
2022/12/08 04:11:15;;;;;;;0.00;0.00;;;;;;;-1.50;59.44;100486.25;5026539;28;20397;-67
2022/12/08 04:13:42;;;;;;;0.00;0.00;;;;;;;-1.78;60.31;100495.53;5024544;28;20086;-67
2022/12/08 04:16:08;;;;;;;0.13;0.00;;;;;;;-1.79;60.29;100492.13;5027072;28;20110;-67
2022/12/08 04:18:34;;;;;;;0.00;0.00;;;;;;;-1.45;59.17;100487.97;5031756;28;20075;-68
2022/12/08 04:20:59;;;;;;;0.10;0.00;;;;;;;-1.34;59.04;100482.03;5026360;28;20402;-67
2022/12/08 04:23:25;;;;;;;0.40;0.10;;;;;;;-1.46;59.48;100486.28;5024071;28;20043;-66
2022/12/08 04:25:51;;;;;;;0.80;0.03;;;;;;;-1.60;59.87;100486.22;5030289;28;20044;-68
2022/12/08 04:28:16;;;;;;;0.20;0.10;;;;;;;-1.46;59.28;100478.59;5044156;28;20226;-68
2022/12/08 04:30:42;;;;;;;0.20;0.10;;;;;;;-1.32;58.58;100488.03;5029935;28;20037;-67
2022/12/08 04:33:07;;;;;;;0.68;0.20;;;;;;;-1.40;58.89;100486.31;5029727;28;20350;-67
2022/12/08 04:35:33;;;;;;;0.40;0.20;;;;;;;-1.47;59.11;100487.13;5031171;28;20033;-66
2022/12/08 04:37:58;;;;;;;0.30;0.10;;;;;;;-1.28;58.90;100475.22;5026992;28;20527;-67
2022/12/08 04:40:24;;;;;;;0.50;0.20;;;;;;;-1.75;60.29;100477.63;5043451;28;20485;-67
2022/12/08 04:42:49;;;;;;;0.60;0.20;;;;;;;-1.31;59.01;100471.78;5030647;28;20056;-67
2022/12/08 04:45:15;;;;;;;0.50;0.20;;;;;;;-1.59;59.99;100477.69;5031061;28;20064;-67
2022/12/08 04:47:40;;;;;;;0.38;0.20;;;;;;;-1.52;59.27;100475.16;5019215;28;20152;-67
2022/12/08 04:50:07;;;;;;;0.77;0.28;;;;;;;-1.54;59.57;100480.25;5029081;28;20041;-67
2022/12/08 04:52:32;;;;;;;0.60;0.20;;;;;;;-1.77;60.48;100487.00;5028329;28;20338;-67
2022/12/08 04:54:58;;;;;;;0.50;0.20;;;;;;;-1.67;60.42;100486.19;5030632;28;20018;-67
2022/12/08 04:57:23;;;;;;;1.23;0.20;;;;;;;-1.73;60.44;100498.97;5015624;28;20494;-67
2022/12/08 04:59:49;;;;;;;0.45;0.20;;;;;;;-1.68;59.98;100510.09;5031895;28;20029;-68
2022/12/08 05:02:14;;;;;;;0.40;0.10;;;;;;;-1.05;58.35;100503.50;5026593;28;20060;-67
2022/12/08 05:04:40;;;;;;;0.30;0.10;;;;;;;-1.31;58.92;100500.84;5029288;28;20544;-66
2022/12/08 05:07:05;;;;;;;0.43;0.10;;;;;;;-1.24;58.48;100502.59;5027966;28;20111;-68
2022/12/08 05:09:31;;;;;;;0.22;0.10;;;;;;;-1.07;58.38;100507.75;5032062;28;20041;-69
2022/12/08 05:11:56;;;;;;;0.35;0.20;;;;;;;-1.27;58.51;100507.69;5028361;28;20045;-66
2022/12/08 05:14:22;;;;;;;0.40;0.20;;;;;;;-1.73;59.72;100496.41;5026851;28;20033;-68
2022/12/08 05:16:48;;;;;;;0.43;0.10;;;;;;;-1.75;59.80;100490.44;5027024;28;20038;-68
2022/12/08 05:19:14;;;;;;;0.75;0.20;;;;;;;-1.22;58.34;100476.94;5036789;28;20108;-67
2022/12/08 05:21:40;;;;;;;3.45;0.17;;;;;;;-1.16;57.95;100487.22;5028365;28;20593;-68
2022/12/08 05:24:05;;;;;;;0.88;0.28;;;;;;;-1.30;58.71;100488.91;5029257;28;20025;-68
2022/12/08 05:26:31;;;;;;;0.82;0.20;;;;;;;-1.23;58.71;100486.34;5029052;28;20087;-68
2022/12/08 05:28:57;;;;;;;1.77;0.30;;;;;;;-1.20;59.10;100498.31;5026120;28;20041;-68
2022/12/08 05:31:22;;;;;;;0.90;0.30;;;;;;;-0.98;58.38;100497.53;5037817;28;20033;-68
2022/12/08 05:33:49;;;;;;;7.25;0.55;;;;;;;-1.15;58.87;100499.19;5026023;28;20099;-67
2022/12/08 05:36:16;;;;;;;1.55;0.40;;;;;;;-1.73;60.61;100488.72;5028809;28;20522;-68
2022/12/08 05:38:43;;;;;;;1.92;0.50;;;;;;;-1.10;59.02;100486.38;5028267;28;20090;-67
2022/12/08 05:41:15;;;;;;;0.98;0.28;;;;;;;-0.88;58.31;100489.88;5029756;28;20044;-66
2022/12/08 05:43:40;;;;;;;;;;;;;;;-0.81;58.45;100486.44;5029218;28;20091;-67
2022/12/08 05:46:07;;;;;;;3.10;0.32;;;;;;;-0.79;57.94;100487.31;5031687;28;20125;-67
2022/12/08 05:48:33;;;;;;;1.02;0.30;;;;;;;-1.08;59.24;100490.66;5043288;28;20049;-68
2022/12/08 05:50:58;;;;;;;1.05;0.30;;;;;;;-0.98;58.70;100489.84;5028970;28;20414;-68
2022/12/08 05:53:23;;;;;;;0.90;0.30;;;;;;;-0.87;58.96;100484.72;5027843;28;20545;-68
2022/12/08 05:55:49;;;;;;;1.08;0.65;;;;;;;-0.91;58.64;100487.28;5029575;28;20108;-67
2022/12/08 05:58:17;;;;;;;1.25;0.28;;;;;;;-0.56;57.56;100480.47;5025873;28;20458;-68
2022/12/08 06:00:43;;;;;;;0.70;0.20;;;;;;;-0.84;58.07;100483.88;5030024;28;20056;-67
2022/12/08 06:03:10;;;;;;;1.58;0.22;;;;;;;-0.51;57.38;100487.31;5029392;28;20042;-68
2022/12/08 06:05:36;;;;;;;1.60;0.30;;;;;;;-0.61;57.99;100487.31;5029359;28;20475;-67
2022/12/08 06:08:02;;;;;;;0.60;0.15;;;;;;;-0.54;57.62;100484.75;5027092;28;20045;-67
2022/12/08 06:10:28;;;;;;;5.95;0.28;;;;;;;-0.36;57.10;100484.72;5026485;28;20029;-67
2022/12/08 06:12:53;;;;;;;2.10;0.30;;;;;;;-0.56;57.27;100490.72;5027735;28;20510;-68
2022/12/08 06:15:19;;;;;;;4.43;0.30;;;;;;;-0.70;57.21;100492.44;5028369;28;20067;-68
2022/12/08 06:17:44;;;;;;;0.47;0.17;;;;;;;-0.83;57.42;100501.00;5026534;28;20049;-67
2022/12/08 06:20:10;;;;;;;2.13;0.30;;;;;;;-0.65;56.85;100495.88;5028267;28;20022;-68
2022/12/08 06:22:36;;;;;;;1.98;0.50;;;;;;;-0.74;56.52;100501.00;5027084;28;20160;-67
2022/12/08 06:25:02;;;;;;;4.78;0.98;;;;;;;-0.68;56.33;100501.00;5019828;28;20037;-67
2022/12/08 06:27:27;;;;;;;1.73;0.47;;;;;;;-0.71;55.99;100524.09;5030730;28;20071;-67
2022/12/08 06:29:53;;;;;;;0.80;0.20;;;;;;;-0.87;56.53;100519.78;5018316;28;20485;-68
2022/12/08 06:32:19;;;;;;;1.50;0.40;;;;;;;-0.92;56.41;100524.06;5027947;28;20555;-68
2022/12/08 06:34:44;;;;;;;2.65;0.40;;;;;;;-0.94;56.51;100523.22;5028408;28;20083;-68
2022/12/08 06:37:10;;;;;;;1.30;0.75;;;;;;;-0.98;56.44;100524.91;5044046;28;20099;-67
2022/12/08 06:39:36;;;;;;;1.17;0.40;;;;;;;-1.07;56.78;100529.97;5026984;28;20063;-67
2022/12/08 06:44:45;;;;;;;0.52;0.20;;;;;;;-1.09;56.56;100503.47;5026271;28;20045;-68
2022/12/08 06:47:11;;;;;;;0.38;0.10;;;;;;;-1.11;56.12;100489.78;5041725;28;20095;-67
2022/12/08 06:49:36;;;;;;;0.68;0.10;;;;;;;-1.16;55.77;100484.66;5039158;28;20381;-67
2022/12/08 06:52:02;;;;;;;0.25;0.10;;;;;;;-1.19;56.31;100487.22;5033397;28;20437;-68
2022/12/08 06:54:27;;;;;;;0.90;0.30;;;;;;;-1.36;56.66;100488.88;5026178;28;20499;-67
2022/12/08 06:56:53;;;;;;;0.63;0.13;;;;;;;-1.22;56.65;100492.31;5026919;28;20498;-67
2022/12/08 06:59:18;;;;;;;0.60;0.20;;;;;;;-1.24;56.83;100497.47;5028318;28;20470;-67
2022/12/08 07:01:44;;;;;;;0.70;0.20;;;;;;;-1.18;56.39;100494.03;5025431;28;20455;-67
2022/12/08 07:04:10;;;;;;;0.60;0.25;;;;;;;-1.29;56.25;100500.84;5029827;28;20030;-67
2022/12/08 07:06:36;;;;;;;0.45;0.10;;;;;;;-1.30;55.88;100499.16;5025380;28;20402;-66
2022/12/08 07:09:02;;;;;;;0.98;0.10;;;;;;;-1.34;56.20;100492.28;5029023;28;20069;-67
2022/12/08 07:11:27;;;;;;;0.52;0.10;;;;;;;-1.45;56.26;100507.63;5025105;28;20125;-68
2022/12/08 07:13:55;;;;;;;0.30;0.10;;;;;;;-1.56;56.32;100512.72;5025285;28;20072;-67
2022/12/08 07:16:21;;;;;;;0.28;0.10;;;;;;;-1.51;56.02;100511.06;5027768;28;20029;-67
2022/12/08 07:18:47;;;;;;;0.40;0.10;;;;;;;-1.58;56.04;100509.28;5027858;28;20057;-67
2022/12/08 07:21:13;;;;;;;2.25;0.20;;;;;;;-1.58;55.96;100519.53;5030727;28;20079;-67
2022/12/08 07:23:40;;;;;;;0.68;0.15;;;;;;;-1.56;56.13;100511.88;5026748;28;20060;-66
2022/12/08 07:26:08;;;;;;;0.52;0.13;;;;;;;-1.59;56.14;100507.59;5027662;28;20026;-68
2022/12/08 07:28:36;;;;;;;1.50;0.20;;;;;;;-1.63;56.20;100505.84;5033142;28;20124;-67
2022/12/08 07:31:03;;;;;;;0.20;0.10;;;;;;;-1.67;57.05;100499.00;5028855;28;20037;-67
2022/12/08 07:33:28;;;;;;;1.38;0.17;;;;;;;-1.65;57.26;100498.16;5026353;28;20049;-67
2022/12/08 07:35:56;;;;;;;0.30;0.10;;;;;;;-1.67;57.45;100504.13;5026696;28;20548;-67
2022/12/08 07:38:21;;;;;;;1.17;0.10;;;;;;;-1.98;58.62;100511.63;5034720;28;20041;-67
2022/12/08 07:40:46;;;;;;;0.30;0.10;;;;;;;-1.99;58.70;100519.34;5029231;28;20569;-67
2022/12/08 07:43:12;;;;;;;1.05;0.20;;;;;;;-1.70;58.00;100524.63;5028276;28;20144;-67
2022/12/08 07:45:39;;;;;;;0.63;0.20;;;;;;;-1.78;58.23;100526.28;5023103;28;20172;-68
2022/12/08 07:48:05;;;;;;;0.47;0.15;;;;;;;-1.60;57.99;100532.38;5042896;28;20041;-67
2022/12/08 07:50:31;;;;;;;0.68;0.20;;;;;;;-1.66;58.80;100537.44;5025743;28;20041;-68
2022/12/08 07:52:56;;;;;;;0.77;0.28;;;;;;;-1.35;57.77;100549.53;5040050;28;20515;-68
2022/12/08 07:55:21;;;;;;;2.75;0.70;;;;;;;-1.40;58.02;100564.91;5032435;28;20033;-67
2022/12/08 07:57:49;;;;;;;1.88;0.77;;;;;;;-1.23;57.49;100565.84;5025714;28;20043;-67
2022/12/08 08:00:15;;;;;;;2.15;0.90;;;;;;;-1.11;57.27;100566.72;5024049;28;20035;-68
2022/12/08 08:02:41;;;;;;;0.85;0.30;;;;;;;-1.20;57.51;100558.19;5026314;28;20151;-68
2022/12/08 08:05:07;;;;;;;0.45;0.20;;;;;;;-1.07;57.19;100548.78;5026894;28;20025;-68
2022/12/08 08:07:32;;;;;;;0.75;0.32;;;;;;;-0.81;56.94;100543.75;5026461;28;20443;-68
2022/12/08 08:09:58;;;;;;;2.47;0.40;;;;;;;-0.76;56.68;100548.91;5038981;28;20119;-68
2022/12/08 08:12:23;;;;;;;1.92;0.60;;;;;;;-1.11;57.30;100554.75;5026109;28;20041;-67
2022/12/08 08:14:49;;;;;;;6.95;0.95;;;;;;;-0.83;56.96;100565.13;5027404;28;20087;-67
2022/12/08 08:17:14;;;;;;;2.60;1.55;;;;;;;-0.88;56.59;100565.13;5024349;28;20473;-66
2022/12/08 08:19:39;;;;;;;3.20;1.35;;;;;;;-0.78;56.67;100556.59;5025251;28;20037;-67
2022/12/08 08:22:05;;;;;;;3.78;1.23;;;;;;;-0.65;56.54;100557.47;5027127;28;20115;-67
2022/12/08 08:24:30;;;;;;;2.10;0.85;;;;;;;-0.68;56.66;100552.34;5033383;28;20021;-68
2022/12/08 08:26:56;;;;;;;2.63;0.70;;;;;;;-0.70;56.95;100559.19;5026068;28;20044;-67
2022/12/08 08:29:21;;;;;;;2.55;0.32;;;;;;;-0.57;56.73;100548.06;5026694;28;20547;-67
2022/12/08 08:31:47;;;;;;;0.28;0.10;;;;;;;-0.67;56.38;100559.16;5025072;28;20037;-66
2022/12/08 08:34:12;;;;;;;0.70;0.40;;;;;;;-0.69;56.68;100560.88;5039642;28;20398;-66
2022/12/08 08:36:38;;;;;;;0.88;0.10;;;;;;;-0.73;57.31;100553.16;5039295;28;20025;-67
2022/12/08 08:39:04;;;;;;;0.68;0.20;;;;;;;-0.78;57.16;100550.59;5025566;28;20119;-67
2022/12/08 08:41:30;;;;;;;0.95;0.30;;;;;;;-0.84;57.31;100554.03;5028036;28;20442;-67
2022/12/08 08:43:55;;;;;;;3.13;0.20;;;;;;;-1.01;57.05;100548.84;5037699;28;20045;-68
2022/12/08 08:46:21;;;;;;;1.77;0.57;;;;;;;-0.72;56.93;100548.06;5042023;28;20026;-67
2022/12/08 08:48:46;;;;;;;0.90;0.30;;;;;;;-1.07;57.35;100547.94;5021808;28;20061;-68
2022/12/08 08:51:13;;;;;;;5.70;0.95;;;;;;;-1.18;58.06;100550.47;5026915;28;20526;-68
2022/12/08 08:53:39;;;;;;;1.63;0.40;;;;;;;-0.67;57.51;100548.91;5026720;28;20037;-67
2022/12/08 08:56:20;;;;;;;0.88;0.20;;;;;;;-0.09;56.10;100544.63;5027196;28;20040;-67
2022/12/08 08:58:48;;;;;;;0.70;0.20;;;;;;;0.47;55.97;100541.91;5024355;28;20502;-67
2022/12/08 09:01:16;;;;;;;0.60;0.40;;;;;;;0.75;53.59;100539.25;5025371;28;20044;-67
2022/12/08 09:03:41;;;;;;;0.68;0.20;;;;;;;0.63;54.43;100550.44;5014749;28;20059;-67
2022/12/08 09:06:07;;;;;;;0.30;0.10;;;;;;;0.52;54.07;100553.91;5027590;28;20151;-67
2022/12/08 09:08:32;;;;;;;0.65;0.20;;;;;;;0.24;54.24;100562.56;5032131;28;20048;-68
2022/12/08 09:10:58;;;;;;;2.03;0.55;;;;;;;-0.02;54.62;100566.88;5028608;28;20107;-67
2022/12/08 09:13:23;;;;;;;2.40;0.85;;;;;;;0.03;54.67;100578.00;5027074;28;20041;-67
2022/12/08 09:15:49;;;;;;;4.60;0.50;;;;;;;-0.79;55.63;100569.44;5029426;28;20025;-67
2022/12/08 09:18:14;;;;;;;1.55;0.30;;;;;;;-0.77;56.31;100568.56;5028323;28;20115;-66
2022/12/08 09:20:40;;;;;;;0.75;0.32;;;;;;;-0.57;55.33;100571.19;5034665;28;20037;-66
2022/12/08 09:23:05;;;;;;;2.40;0.22;;;;;;;-0.33;55.27;100569.47;5025303;28;20053;-68
2022/12/08 09:25:31;;;;;;;4.00;0.32;;;;;;;-0.10;55.75;100571.16;5028328;28;20068;-68
2022/12/08 09:27:56;;;;;;;3.00;0.40;;;;;;;0.46;55.23;100570.25;5025584;28;20041;-67
2022/12/08 09:30:21;;;;;;;2.38;0.25;;;;;;;1.02;54.99;100563.13;5028703;28;20492;-66
2022/12/08 09:32:47;;;;;;;0.80;0.32;;;;;;;1.39;53.86;100563.75;5041734;28;20040;-66
2022/12/08 09:35:12;;;;;;;3.53;0.40;;;;;;;1.41;52.69;100551.75;5028953;28;20506;-67
2022/12/08 09:37:38;;;;;;;2.45;0.30;;;;;;;1.16;52.81;100565.63;5023495;28;20043;-67
2022/12/08 09:40:07;;;;;;;1.90;0.32;;;;;;;1.57;52.48;100557.63;5027567;28;20057;-68
2022/12/08 09:42:49;;;;;;;1.90;0.20;;;;;;;2.40;52.88;100553.44;5025761;28;20525;-67
2022/12/08 09:45:16;;;;;;;1.83;0.30;;;;;;;2.88;51.10;100551.13;5025969;28;20029;-68
2022/12/08 09:48:25;;;;;;;5.60;1.45;;;;;;;2.55;50.74;100537.78;5025168;28;20045;-67
2022/12/08 09:50:54;;;;;;;5.40;1.75;;;;;;;3.08;48.93;100545.72;5024818;28;20037;-67
2022/12/08 09:53:29;;;;;;;2.33;0.63;;;;;;;3.00;49.21;100538.06;5040787;28;20052;-68
2022/12/08 09:56:07;;;;;;;2.58;0.30;;;;;;;3.11;49.10;100541.38;5027841;28;20134;-67
2022/12/08 09:58:47;;;;;;;1.42;0.40;;;;;;;2.93;48.11;100541.59;5032742;28;20489;-67
2022/12/08 10:01:13;;;;;;;4.78;0.20;;;;;;;3.15;47.51;100547.31;5026729;28;20285;-67
2022/12/08 10:03:40;;;;;;;0.82;0.13;;;;;;;3.05;48.38;100546.59;5023395;28;20043;-67
2022/12/08 10:06:17;;;;;;;4.03;0.80;;;;;;;2.38;48.07;100552.59;5027699;28;20026;-67
2022/12/08 10:09:14;;;;;;;1.38;0.40;;;;;;;1.68;50.67;100550.69;5030539;28;20079;-66
2022/12/08 10:12:03;;;;;;;1.95;0.52;;;;;;;1.95;50.82;100556.47;5024930;28;20371;-67
2022/12/08 10:14:41;;;;;;;5.43;0.35;;;;;;;2.47;50.76;100552.50;5025901;28;20022;-67
2022/12/08 10:17:29;;;;;;;3.10;0.52;;;;;;;2.03;49.90;100551.25;5026575;28;20076;-67
2022/12/08 10:20:10;;;;;;;2.60;0.68;;;;;;;2.20;50.62;100554.53;5039687;28;20045;-67
2022/12/08 10:22:36;;;;;;;1.33;0.20;;;;;;;2.60;50.10;100561.81;5029138;28;20480;-66
2022/12/08 10:25:15;;;;;;;3.17;0.20;;;;;;;2.93;49.42;100552.78;5026389;28;20033;-66
2022/12/08 10:27:40;;;;;;;1.90;0.20;;;;;;;3.18;48.16;100550.72;5031314;28;20041;-67
2022/12/08 10:30:11;;;;;;;1.52;0.17;;;;;;;3.27;47.87;100551.44;5024268;28;20029;-66
2022/12/08 10:32:38;;;;;;;1.13;0.20;;;;;;;3.58;47.73;100555.31;5028987;28;20033;-67
2022/12/08 10:35:12;;;;;;;0.40;0.10;;;;;;;2.73;48.31;100550.47;5033794;28;20120;-66
2022/12/08 10:37:38;;;;;;;3.25;0.20;;;;;;;2.40;49.61;100553.44;5032546;28;20064;-66
2022/12/08 10:40:10;;;;;;;2.90;0.63;;;;;;;2.44;49.78;100560.25;5043704;28;20036;-67
2022/12/08 10:42:40;;;;;;;;;;;;;;;2.52;50.27;100556.72;5024848;28;20079;-66
2022/12/08 10:45:08;;;;;;;2.28;0.30;;;;;;;2.55;50.09;100567.03;5035835;28;19921;-66
2022/12/08 10:47:37;;;;;;;0.57;0.28;;;;;;;2.58;50.03;100566.13;5026164;28;20053;-66
2022/12/08 10:50:19;;;;;;;1.23;0.55;;;;;;;2.53;49.58;100568.78;5025243;28;20505;-66
2022/12/08 10:52:56;;;;;;;1.23;0.10;;;;;;;2.93;49.44;100562.25;5027992;28;20056;-65
2022/12/08 10:55:22;;;;;;;0.50;0.10;;;;;;;3.28;49.04;100563.50;5035607;28;20108;-66
2022/12/08 10:57:48;;;;;;;3.50;0.10;;;;;;;3.61;48.21;100566.50;5025605;28;20116;-65
2022/12/08 11:00:17;;;;;;;0.20;0.10;;;;;;;3.15;47.12;100562.81;5029074;28;20508;-66
2022/12/08 11:03:02;;;;;;;0.38;0.10;;;;;;;2.90;48.35;100562.31;5028797;28;20041;-66
2022/12/08 11:05:36;;;;;;;4.47;1.38;;;;;;;2.67;48.02;100560.03;5031106;28;20033;-65
2022/12/08 11:08:03;;;;;;;3.28;0.20;;;;;;;2.62;48.85;100562.63;5043651;28;20492;-65
2022/12/08 11:10:35;;;;;;;1.65;0.10;;;;;;;2.69;49.14;100564.28;5030166;28;20032;-65
2022/12/08 11:13:03;;;;;;;0.82;0.30;;;;;;;2.71;49.28;100562.53;5028726;28;20040;-65
2022/12/08 11:15:36;;;;;;;0.63;0.20;;;;;;;2.72;48.99;100569.41;5034925;28;20033;-65
2022/12/08 11:18:37;;;;;;;3.15;0.40;;;;;;;2.88;49.52;100566.63;5031137;28;20139;-64
2022/12/08 11:21:12;;;;;;;1.33;0.17;;;;;;;3.39;49.13;100562.50;5031598;28;20284;-64
2022/12/08 11:23:41;;;;;;;0.73;0.13;;;;;;;3.36;48.12;100553.94;5033882;28;20122;-65
2022/12/08 11:26:19;;;;;;;3.05;0.00;;;;;;;3.47;48.11;100549.47;5034616;28;20040;-65
2022/12/08 11:28:45;;;;;;;1.05;0.00;;;;;;;3.62;48.19;100558.69;5044187;28;20037;-66
2022/12/08 11:31:41;;;;;;;1.65;0.10;;;;;;;3.66;47.68;100554.34;5025299;28;20048;-66
2022/12/08 11:34:18;;;;;;;1.08;0.20;;;;;;;4.22;45.79;100558.50;5016763;28;20041;-66
2022/12/08 11:36:45;;;;;;;2.35;0.10;;;;;;;4.10;46.51;100557.91;5025115;28;20029;-68
2022/12/08 11:39:13;;;;;;;0.95;0.50;;;;;;;4.12;45.75;100556.97;5026956;28;20559;-66
2022/12/08 11:41:42;;;;;;;0.75;0.10;;;;;;;4.00;46.78;100563.22;5021820;28;20041;-65
2022/12/08 11:44:21;;;;;;;0.93;0.20;;;;;;;3.32;47.06;100558.28;5024251;28;20029;-67